Terminal Aerodrome Forecast
Issued by NWS Sioux Falls, SD

Home | Current Version | Previous Version | Text Only | Print | Product List | Glossary On
Versions: 1 2 3 4 5 6 7 8 9 10 11 12 13 14 15 16 17 18 19 20 21 22 23
894
FTUS43 KFSD 251010 AAB
TAFFSD
TAF AMD
KFSD 251010Z 2510/2606 36008KT 6SM SHRA OVC009
     FM251200 01008KT 6SM -SHRA OVC008
     FM251500 36009KT P6SM OVC008
     FM251900 35009KT P6SM OVC010
     FM252000 36009KT P6SM VCSH OVC008
     FM252100 35009KT 3SM -SHRA OVC008=

USA.gov is the U.S. government's official web portal to all federal, state and local government web resources and services.